Time;durP1;ratioP1;P1;durP2;ratioP2;P2;SDS_P1;SDS_P2;PMS_P1;PMS_P2;Temp;Humidity;BMP_temperature;BMP_pressure;BME280_temperature;BME280_humidity;BME280_pressure;Samples;Min_cycle;Max_cycle;Signal;HPM_P1;HPM_P2
2024/03/17 00:00:40;;;;;;;20.87;5.20;;;;;;;;;;5114538;28;20204;-89
2024/03/17 00:03:08;;;;;;;15.97;5.00;;;;;;;;;;5114693;28;20193;-86
2024/03/17 00:05:35;;;;;;;23.70;4.93;;;;;;;;;;5114683;28;20231;-89
2024/03/17 00:08:04;;;;;;;18.97;5.50;;;;;;;;;;5102203;28;20218;-88
2024/03/17 00:10:31;;;;;;;23.60;5.37;;;;;;;;;;5093420;28;20293;-88
2024/03/17 00:12:58;;;;;;;17.97;4.93;;;;;;;;;;5086381;28;20564;-89
2024/03/17 00:15:25;;;;;;;23.90;5.20;;;;;;;;;;5073719;28;20208;-89
2024/03/17 00:17:51;;;;;;;17.77;4.90;;;;;;;;;;5073414;28;20207;-89
2024/03/17 00:20:20;;;;;;;20.27;5.43;;;;;;;;;;5073528;28;20207;-89
2024/03/17 00:22:47;;;;;;;20.17;5.07;;;;;;;;;;5073573;28;20242;-90
2024/03/17 00:25:16;;;;;;;15.00;4.07;;;;;;;;;;5073189;28;20203;-90
2024/03/17 00:27:44;;;;;;;22.27;5.33;;;;;;;;;;5073238;28;20284;-89
2024/03/17 00:30:13;;;;;;;21.97;5.37;;;;;;;;;;5073563;28;20306;-90
2024/03/17 00:32:39;;;;;;;18.00;4.93;;;;;;;;;;5073579;28;20190;-89
2024/03/17 00:35:07;;;;;;;17.50;5.00;;;;;;;;;;5073934;28;20244;-89
2024/03/17 00:37:34;;;;;;;15.63;4.67;;;;;;;;;;5073781;28;20672;-89
2024/03/17 00:40:01;;;;;;;19.00;4.80;;;;;;;;;;5073065;28;20198;-88
2024/03/17 00:42:29;;;;;;;15.27;4.50;;;;;;;;;;5073275;28;20203;-89
2024/03/17 00:44:59;;;;;;;21.00;5.33;;;;;;;;;;5073517;28;20211;-89
2024/03/17 00:47:26;;;;;;;15.87;4.33;;;;;;;;;;5073376;28;20616;-89
2024/03/17 00:49:53;;;;;;;16.40;4.70;;;;;;;;;;5073416;28;20199;-89
2024/03/17 00:52:19;;;;;;;15.70;4.80;;;;;;;;;;5073067;28;20282;-88
2024/03/17 00:54:48;;;;;;;17.50;5.20;;;;;;;;;;5073049;28;20238;-90
2024/03/17 00:57:15;;;;;;;15.50;4.90;;;;;;;;;;5073306;28;20276;-88
2024/03/17 00:59:44;;;;;;;16.17;5.10;;;;;;;;;;5073461;28;20199;-89
2024/03/17 01:02:12;;;;;;;17.03;5.10;;;;;;;;;;5073070;28;20207;-88
2024/03/17 01:04:39;;;;;;;18.97;5.17;;;;;;;;;;5073260;28;20585;-88
2024/03/17 01:07:05;;;;;;;15.60;5.47;;;;;;;;;;5073461;28;20692;-89
2024/03/17 01:09:32;;;;;;;15.07;5.00;;;;;;;;;;5076710;28;20234;-89
2024/03/17 01:11:59;;;;;;;18.07;5.70;;;;;;;;;;5077342;28;20621;-88
2024/03/17 01:14:27;;;;;;;20.17;5.30;;;;;;;;;;5079776;28;20301;-88
2024/03/17 01:16:55;;;;;;;18.57;5.57;;;;;;;;;;5097249;28;20210;-89
2024/03/17 01:19:22;;;;;;;17.60;5.37;;;;;;;;;;5096727;28;20238;-88
2024/03/17 01:21:48;;;;;;;17.60;5.10;;;;;;;;;;5097054;28;20278;-88
2024/03/17 01:24:16;;;;;;;15.03;5.57;;;;;;;;;;5096464;28;20580;-89
2024/03/17 01:26:42;;;;;;;18.40;5.63;;;;;;;;;;5096905;28;20285;-88
2024/03/17 01:29:10;;;;;;;16.97;5.73;;;;;;;;;;5096621;28;20229;-86
2024/03/17 01:31:36;;;;;;;19.90;5.40;;;;;;;;;;5096560;28;20222;-89
2024/03/17 01:34:04;;;;;;;18.63;5.50;;;;;;;;;;5096224;28;20202;-87
2024/03/17 01:36:31;;;;;;;16.63;4.90;;;;;;;;;;5096631;28;20190;-87
2024/03/17 01:38:58;;;;;;;16.20;4.87;;;;;;;;;;5096096;28;20198;-86
2024/03/17 01:41:24;;;;;;;19.73;5.37;;;;;;;;;;5096252;28;20218;-86
2024/03/17 01:43:52;;;;;;;14.67;4.87;;;;;;;;;;5078163;28;20646;-87
2024/03/17 01:46:18;;;;;;;16.10;4.87;;;;;;;;;;5095870;28;20271;-87
2024/03/17 01:48:45;;;;;;;13.00;5.13;;;;;;;;;;5095934;28;20218;-87
2024/03/17 01:51:15;;;;;;;17.43;5.50;;;;;;;;;;5096355;28;20230;-86
2024/03/17 01:53:45;;;;;;;11.57;4.63;;;;;;;;;;5096238;28;20652;-87
2024/03/17 01:56:11;;;;;;;17.23;5.40;;;;;;;;;;5095705;28;20234;-88
2024/03/17 01:58:39;;;;;;;16.83;4.50;;;;;;;;;;5096110;28;20230;-86
2024/03/17 02:01:06;;;;;;;14.70;4.50;;;;;;;;;;5095371;28;20260;-88
2024/03/17 02:03:34;;;;;;;15.40;4.70;;;;;;;;;;5096246;28;20948;-88
2024/03/17 02:06:00;;;;;;;16.13;5.10;;;;;;;;;;5095322;28;20629;-86
2024/03/17 02:08:29;;;;;;;16.70;4.93;;;;;;;;;;5095558;28;20262;-88
2024/03/17 02:10:56;;;;;;;15.30;4.80;;;;;;;;;;5095799;28;20198;-87
2024/03/17 02:13:23;;;;;;;12.27;4.50;;;;;;;;;;5095697;28;20586;-87
2024/03/17 02:15:49;;;;;;;14.77;4.67;;;;;;;;;;5096186;28;20293;-87
2024/03/17 02:18:16;;;;;;;13.40;4.87;;;;;;;;;;5095456;28;20645;-86
2024/03/17 02:20:55;;;;;;;15.00;4.63;;;;;;;;;;5094797;28;20222;-87
2024/03/17 02:23:26;;;;;;;19.30;4.67;;;;;;;;;;5095209;28;20202;-87
2024/03/17 02:25:52;;;;;;;11.70;4.50;;;;;;;;;;5095543;28;20251;-86
2024/03/17 02:28:19;;;;;;;16.23;5.70;;;;;;;;;;5095271;28;20226;-87
2024/03/17 02:30:47;;;;;;;14.50;5.17;;;;;;;;;;5095259;28;20190;-87
2024/03/17 02:33:14;;;;;;;12.63;4.40;;;;;;;;;;5088639;28;20202;-85
2024/03/17 02:35:40;;;;;;;14.03;4.57;;;;;;;;;;5082847;28;20290;-85
2024/03/17 02:38:09;;;;;;;14.63;4.33;;;;;;;;;;5074356;28;20203;-85
2024/03/17 02:40:36;;;;;;;18.50;5.13;;;;;;;;;;5073411;28;20684;-85
2024/03/17 02:43:03;;;;;;;16.83;4.30;;;;;;;;;;5074053;28;20226;-86
2024/03/17 02:45:31;;;;;;;15.07;4.83;;;;;;;;;;5074241;28;20242;-86
2024/03/17 02:47:58;;;;;;;13.97;4.67;;;;;;;;;;5074153;28;20237;-87
2024/03/17 02:50:26;;;;;;;10.53;4.63;;;;;;;;;;5073993;28;20195;-87
2024/03/17 02:52:53;;;;;;;12.67;4.77;;;;;;;;;;5074769;28;20191;-87
2024/03/17 02:55:20;;;;;;;16.27;5.13;;;;;;;;;;5074679;28;20251;-87
2024/03/17 02:57:49;;;;;;;15.87;4.90;;;;;;;;;;5074733;28;20207;-88
2024/03/17 03:00:16;;;;;;;16.97;4.97;;;;;;;;;;5074633;28;20218;-87
2024/03/17 03:02:43;;;;;;;14.67;4.63;;;;;;;;;;5074826;28;20583;-86
2024/03/17 03:05:10;;;;;;;13.00;4.60;;;;;;;;;;5074352;28;20218;-87
2024/03/17 03:07:38;;;;;;;12.77;4.63;;;;;;;;;;5075493;28;20207;-88
2024/03/17 03:10:06;;;;;;;11.93;4.10;;;;;;;;;;5074909;28;20630;-88
2024/03/17 03:12:33;;;;;;;15.30;4.30;;;;;;;;;;5064567;28;20194;-87
2024/03/17 03:15:02;;;;;;;16.30;4.70;;;;;;;;;;5115629;28;20226;-87
2024/03/17 03:17:30;;;;;;;11.63;4.60;;;;;;;;;;5115128;28;20206;-87
2024/03/17 03:19:57;;;;;;;12.10;4.37;;;;;;;;;;5114685;28;20251;-87
2024/03/17 03:22:24;;;;;;;12.77;4.53;;;;;;;;;;5114835;28;20194;-86
2024/03/17 03:24:53;;;;;;;12.00;4.27;;;;;;;;;;5113962;28;20231;-85
2024/03/17 03:27:20;;;;;;;12.80;4.00;;;;;;;;;;5114035;28;20761;-86
2024/03/17 03:29:48;;;;;;;13.07;4.47;;;;;;;;;;5113430;28;20590;-87
2024/03/17 03:32:17;;;;;;;12.63;3.97;;;;;;;;;;5113331;28;20232;-86
2024/03/17 03:34:44;;;;;;;10.53;4.10;;;;;;;;;;5113902;28;20194;-87
2024/03/17 03:37:12;;;;;;;13.00;4.30;;;;;;;;;;5114659;28;20209;-87
2024/03/17 03:39:40;;;;;;;12.97;4.33;;;;;;;;;;5114417;28;20205;-86
2024/03/17 03:42:10;;;;;;;13.30;4.17;;;;;;;;;;5114000;28;20232;-88
2024/03/17 03:44:38;;;;;;;14.13;4.23;;;;;;;;;;5114083;28;20190;-87
2024/03/17 03:47:05;;;;;;;14.97;4.20;;;;;;;;;;5114005;28;20198;-85
2024/03/17 03:49:37;;;;;;;11.63;4.40;;;;;;;;;;5113267;28;20313;-86
2024/03/17 03:52:07;;;;;;;11.03;3.97;;;;;;;;;;5113692;28;20185;-85
2024/03/17 03:54:35;;;;;;;13.57;4.23;;;;;;;;;;5112921;28;20229;-85
2024/03/17 03:57:02;;;;;;;11.40;4.07;;;;;;;;;;5113605;28;20280;-85
2024/03/17 03:59:30;;;;;;;12.37;3.80;;;;;;;;;;5113572;28;20212;-86
2024/03/17 04:01:58;;;;;;;15.20;4.30;;;;;;;;;;5113564;28;20240;-87
2024/03/17 04:04:25;;;;;;;13.87;3.73;;;;;;;;;;5114203;28;20551;-87
2024/03/17 04:06:54;;;;;;;14.27;4.30;;;;;;;;;;5113820;28;20228;-86
2024/03/17 04:09:21;;;;;;;6.20;3.40;;;;;;;;;;5113739;28;20230;-87
2024/03/17 04:11:49;;;;;;;11.00;4.00;;;;;;;;;;5113731;28;20650;-87
2024/03/17 04:14:16;;;;;;;15.60;4.40;;;;;;;;;;5113782;28;20285;-87
2024/03/17 04:16:44;;;;;;;11.50;3.83;;;;;;;;;;5113240;28;20225;-88
2024/03/17 04:19:11;;;;;;;10.03;3.70;;;;;;;;;;5113361;28;20239;-87
2024/03/17 04:21:38;;;;;;;13.03;3.60;;;;;;;;;;5113732;28;20280;-86
2024/03/17 04:24:07;;;;;;;11.83;3.40;;;;;;;;;;5113398;28;20221;-86
2024/03/17 04:26:35;;;;;;;10.10;3.83;;;;;;;;;;5113362;28;20202;-87
2024/03/17 04:29:02;;;;;;;12.70;3.37;;;;;;;;;;5113213;28;20252;-86
2024/03/17 04:31:29;;;;;;;13.00;3.67;;;;;;;;;;5113102;28;20612;-87
2024/03/17 04:33:56;;;;;;;11.60;4.00;;;;;;;;;;5113352;28;20209;-86
2024/03/17 04:36:24;;;;;;;13.20;3.70;;;;;;;;;;5113523;28;20716;-87
2024/03/17 04:38:51;;;;;;;12.17;3.67;;;;;;;;;;5113430;28;20258;-87
2024/03/17 04:41:20;;;;;;;7.53;3.30;;;;;;;;;;5113024;28;20190;-87
2024/03/17 04:43:47;;;;;;;11.10;4.13;;;;;;;;;;5113243;28;20252;-87
2024/03/17 04:46:15;;;;;;;10.53;3.43;;;;;;;;;;5112938;28;20223;-87
2024/03/17 04:48:42;;;;;;;7.60;3.40;;;;;;;;;;5112716;28;20229;-87
2024/03/17 04:51:10;;;;;;;11.23;3.57;;;;;;;;;;5113312;28;20201;-87
2024/03/17 04:53:37;;;;;;;10.47;3.30;;;;;;;;;;5113235;28;20644;-87
2024/03/17 04:56:05;;;;;;;9.80;3.37;;;;;;;;;;5112731;28;20587;-86
2024/03/17 04:58:34;;;;;;;15.27;3.70;;;;;;;;;;5112903;28;20198;-86
2024/03/17 05:01:06;;;;;;;12.13;3.30;;;;;;;;;;5112731;28;20209;-86
2024/03/17 05:03:33;;;;;;;15.87;3.60;;;;;;;;;;5113374;28;20193;-86
2024/03/17 05:06:03;;;;;;;9.80;3.53;;;;;;;;;;5113543;28;20314;-87
2024/03/17 05:08:31;;;;;;;10.80;3.43;;;;;;;;;;5113073;28;20232;-88
2024/03/17 05:10:59;;;;;;;11.30;3.67;;;;;;;;;;5112886;28;21000;-88
2024/03/17 05:13:27;;;;;;;12.20;3.40;;;;;;;;;;5101457;28;20245;-87
2024/03/17 05:15:55;;;;;;;11.43;3.50;;;;;;;;;;5092317;28;20209;-86
2024/03/17 05:18:25;;;;;;;9.70;3.43;;;;;;;;;;5092330;28;20199;-86
2024/03/17 05:20:59;;;;;;;10.43;3.47;;;;;;;;;;5092246;28;20198;-86
2024/03/17 05:23:27;;;;;;;9.40;3.10;;;;;;;;;;5092172;28;20227;-86
2024/03/17 05:25:54;;;;;;;8.40;2.90;;;;;;;;;;5091909;28;20195;-86
2024/03/17 05:28:22;;;;;;;9.00;3.23;;;;;;;;;;5091673;28;20240;-85
2024/03/17 05:30:50;;;;;;;10.30;3.57;;;;;;;;;;5091022;28;20744;-86
2024/03/17 05:33:21;;;;;;;8.77;3.20;;;;;;;;;;5091150;28;20682;-85
2024/03/17 05:35:52;;;;;;;9.23;3.70;;;;;;;;;;5091780;28;20286;-85
2024/03/17 05:38:19;;;;;;;9.40;3.53;;;;;;;;;;5091671;28;20275;-85
2024/03/17 05:40:54;;;;;;;12.50;3.50;;;;;;;;;;5091541;28;20194;-86
2024/03/17 05:43:22;;;;;;;5.97;3.10;;;;;;;;;;5091247;28;20236;-85
2024/03/17 05:45:49;;;;;;;7.67;3.20;;;;;;;;;;5091740;28;20294;-86
2024/03/17 05:48:16;;;;;;;9.23;3.20;;;;;;;;;;5092054;28;20226;-87
2024/03/17 05:50:45;;;;;;;10.20;3.40;;;;;;;;;;5092343;28;20222;-87
2024/03/17 05:53:12;;;;;;;6.90;3.20;;;;;;;;;;5092033;28;20219;-87
2024/03/17 05:55:40;;;;;;;10.40;3.70;;;;;;;;;;5095489;28;20235;-86
2024/03/17 05:58:09;;;;;;;8.63;3.50;;;;;;;;;;5095343;28;20248;-86
2024/03/17 06:00:36;;;;;;;9.10;4.00;;;;;;;;;;5077801;28;20676;-87
2024/03/17 06:03:04;;;;;;;8.33;3.57;;;;;;;;;;5095710;28;20203;-87
2024/03/17 06:05:34;;;;;;;7.30;3.53;;;;;;;;;;5095559;28;20273;-87
2024/03/17 06:08:04;;;;;;;9.93;3.80;;;;;;;;;;5095832;28;20661;-87
2024/03/17 06:10:31;;;;;;;12.27;3.90;;;;;;;;;;5095265;28;20309;-86
2024/03/17 06:12:59;;;;;;;7.90;3.37;;;;;;;;;;5095199;28;20201;-88
2024/03/17 06:15:26;;;;;;;12.00;4.33;;;;;;;;;;5095618;28;20222;-88
2024/03/17 06:17:53;;;;;;;11.53;3.90;;;;;;;;;;5096109;28;20217;-87
2024/03/17 06:20:21;;;;;;;8.70;4.17;;;;;;;;;;5095694;28;20335;-87
2024/03/17 06:22:48;;;;;;;11.90;4.10;;;;;;;;;;5095495;28;20704;-87
2024/03/17 06:25:21;;;;;;;9.30;3.97;;;;;;;;;;5095595;28;20248;-87
2024/03/17 06:27:48;;;;;;;6.63;3.83;;;;;;;;;;5095165;28;20202;-87
2024/03/17 06:30:18;;;;;;;8.20;3.73;;;;;;;;;;5095680;28;20257;-86
2024/03/17 06:32:46;;;;;;;10.03;4.20;;;;;;;;;;5095504;28;20669;-87
2024/03/17 06:35:15;;;;;;;9.47;4.47;;;;;;;;;;5094859;28;20635;-87
2024/03/17 06:37:42;;;;;;;8.80;3.73;;;;;;;;;;5094842;28;20194;-87
2024/03/17 06:40:11;;;;;;;13.03;4.27;;;;;;;;;;5094808;28;20251;-85
2024/03/17 06:42:40;;;;;;;10.73;4.57;;;;;;;;;;5094176;28;20339;-86
2024/03/17 06:45:08;;;;;;;7.57;3.93;;;;;;;;;;5094566;28;20198;-86
2024/03/17 06:47:36;;;;;;;10.33;4.30;;;;;;;;;;5094383;28;20214;-87
2024/03/17 06:50:03;;;;;;;14.77;4.10;;;;;;;;;;5094614;28;20279;-87
2024/03/17 06:52:33;;;;;;;9.53;4.37;;;;;;;;;;5094634;28;20197;-86
2024/03/17 06:55:01;;;;;;;11.87;4.57;;;;;;;;;;5094488;28;20659;-86
2024/03/17 06:57:33;;;;;;;10.87;4.10;;;;;;;;;;5093785;28;20676;-86
2024/03/17 07:00:05;;;;;;;8.47;4.20;;;;;;;;;;5094108;28;20312;-86
2024/03/17 07:02:33;;;;;;;9.70;3.90;;;;;;;;;;5093858;28;20194;-86
2024/03/17 07:05:00;;;;;;;9.87;4.20;;;;;;;;;;5093989;28;20195;-87
2024/03/17 07:07:28;;;;;;;8.83;3.70;;;;;;;;;;5094158;28;20243;-86
2024/03/17 07:09:55;;;;;;;8.53;3.73;;;;;;;;;;5094123;28;20641;-85
2024/03/17 07:12:22;;;;;;;7.63;3.90;;;;;;;;;;5096333;28;20660;-87
2024/03/17 07:14:51;;;;;;;8.37;3.80;;;;;;;;;;5114840;28;20298;-88
2024/03/17 07:17:20;;;;;;;8.67;3.27;;;;;;;;;;5115979;28;20195;-86
2024/03/17 07:19:49;;;;;;;5.27;3.20;;;;;;;;;;5115888;28;20243;-87
2024/03/17 07:22:17;;;;;;;5.60;3.30;;;;;;;;;;5114638;28;20225;-86
2024/03/17 07:24:45;;;;;;;5.93;3.33;;;;;;;;;;5114970;28;20198;-87
2024/03/17 07:27:14;;;;;;;6.93;3.27;;;;;;;;;;5114322;28;20190;-88
2024/03/17 07:29:42;;;;;;;8.33;3.10;;;;;;;;;;5114290;28;20225;-86
2024/03/17 07:32:09;;;;;;;6.37;3.20;;;;;;;;;;5114785;28;20626;-86
2024/03/17 07:34:38;;;;;;;4.93;2.93;;;;;;;;;;5114766;28;20193;-88
2024/03/17 07:37:05;;;;;;;5.27;2.67;;;;;;;;;;5114000;28;20243;-87
2024/03/17 07:39:33;;;;;;;6.13;2.90;;;;;;;;;;5113701;28;20201;-87
2024/03/17 07:42:01;;;;;;;7.10;3.80;;;;;;;;;;5114487;28;20288;-87
2024/03/17 07:44:33;;;;;;;6.13;3.40;;;;;;;;;;5114059;28;20297;-86
2024/03/17 07:47:00;;;;;;;4.23;2.57;;;;;;;;;;5114422;28;20545;-86
2024/03/17 07:49:27;;;;;;;5.60;2.90;;;;;;;;;;5114071;28;20301;-86
2024/03/17 07:51:57;;;;;;;3.60;2.63;;;;;;;;;;5114225;28;20229;-86
2024/03/17 07:54:24;;;;;;;4.87;2.90;;;;;;;;;;5113983;28;20274;-86
2024/03/17 07:56:52;;;;;;;5.50;2.50;;;;;;;;;;5114194;28;20197;-87
2024/03/17 07:59:19;;;;;;;6.27;2.87;;;;;;;;;;5114421;28;20212;-88
2024/03/17 08:01:46;;;;;;;6.63;3.20;;;;;;;;;;5114780;28;20244;-87
2024/03/17 08:04:14;;;;;;;5.30;3.43;;;;;;;;;;5113426;28;20243;-86
2024/03/17 08:06:41;;;;;;;5.63;3.20;;;;;;;;;;5113862;28;20197;-87
2024/03/17 08:09:10;;;;;;;7.57;3.00;;;;;;;;;;5113429;28;20229;-86
2024/03/17 08:11:38;;;;;;;3.70;2.40;;;;;;;;;;5113790;28;20221;-87
2024/03/17 08:14:05;;;;;;;3.77;2.67;;;;;;;;;;5096534;28;20688;-86
2024/03/17 08:16:33;;;;;;;3.63;2.30;;;;;;;;;;5093248;28;20303;-86
2024/03/17 08:19:00;;;;;;;4.37;2.33;;;;;;;;;;5093012;28;20202;-85
2024/03/17 08:21:29;;;;;;;3.87;2.30;;;;;;;;;;5093165;28;20243;-87
2024/03/17 08:23:57;;;;;;;3.43;2.00;;;;;;;;;;5092715;28;20209;-86
2024/03/17 08:26:25;;;;;;;2.90;2.03;;;;;;;;;;5093404;28;20226;-86
2024/03/17 08:28:53;;;;;;;3.13;1.60;;;;;;;;;;5093294;28;21009;-87
2024/03/17 08:31:20;;;;;;;2.80;1.77;;;;;;;;;;5092609;28;20250;-87
2024/03/17 08:33:47;;;;;;;2.73;1.60;;;;;;;;;;5093004;28;20206;-88
2024/03/17 08:36:18;;;;;;;2.27;1.73;;;;;;;;;;5093465;28;20253;-86
2024/03/17 08:38:45;;;;;;;2.50;1.60;;;;;;;;;;5092537;28;20255;-87
2024/03/17 08:41:13;;;;;;;2.57;1.57;;;;;;;;;;5093275;28;20251;-87
2024/03/17 08:43:43;;;;;;;1.87;1.60;;;;;;;;;;5092709;28;20208;-88
2024/03/17 08:46:12;;;;;;;2.70;1.43;;;;;;;;;;5088200;28;20278;-86
2024/03/17 08:48:40;;;;;;;3.17;1.70;;;;;;;;;;5072584;28;20195;-87
2024/03/17 08:51:08;;;;;;;2.83;1.70;;;;;;;;;;5072157;28;20265;-87
2024/03/17 08:53:37;;;;;;;2.87;1.57;;;;;;;;;;5072319;28;20245;-87
2024/03/17 08:56:06;;;;;;;3.80;1.90;;;;;;;;;;5072194;28;20238;-87
2024/03/17 08:58:33;;;;;;;2.10;1.50;;;;;;;;;;5072484;28;20211;-86
2024/03/17 09:01:04;;;;;;;2.90;1.60;;;;;;;;;;5072761;28;20202;-87
2024/03/17 09:03:31;;;;;;;2.50;1.70;;;;;;;;;;5072228;28;20303;-86
2024/03/17 09:05:59;;;;;;;3.17;1.93;;;;;;;;;;5072462;28;20194;-87
2024/03/17 09:08:28;;;;;;;4.13;1.80;;;;;;;;;;5071557;28;20673;-87
2024/03/17 09:10:56;;;;;;;2.37;1.80;;;;;;;;;;5072460;28;20215;-86
2024/03/17 09:13:25;;;;;;;3.63;1.80;;;;;;;;;;5083152;28;20214;-87
2024/03/17 09:15:53;;;;;;;3.03;1.60;;;;;;;;;;5092498;28;20857;-86
2024/03/17 09:18:22;;;;;;;2.73;1.80;;;;;;;;;;5092631;28;20260;-86
2024/03/17 09:20:57;;;;;;;4.60;2.43;;;;;;;;;;5092361;28;20937;-88
2024/03/17 09:23:26;;;;;;;3.00;2.13;;;;;;;;;;5092583;28;20210;-87
2024/03/17 09:25:56;;;;;;;4.03;2.30;;;;;;;;;;5091964;28;20206;-87
2024/03/17 09:28:24;;;;;;;5.23;2.80;;;;;;;;;;5077880;28;20230;-87
2024/03/17 09:30:52;;;;;;;2.13;1.93;;;;;;;;;;5089336;28;20222;-87
2024/03/17 09:33:22;;;;;;;4.03;2.20;;;;;;;;;;5076805;28;20291;-85
2024/03/17 09:35:56;;;;;;;3.10;2.00;;;;;;;;;;4722062;28;10000445;-86
2024/03/17 09:38:23;;;;;;;2.83;2.07;;;;;;;;;;5089365;28;20221;-85
2024/03/17 09:40:52;;;;;;;4.53;2.10;;;;;;;;;;5092973;28;20202;-84
2024/03/17 09:43:20;;;;;;;2.97;1.70;;;;;;;;;;5093036;28;20336;-85
2024/03/17 09:45:47;;;;;;;3.37;1.60;;;;;;;;;;5092365;28;20271;-87
2024/03/17 09:48:17;;;;;;;3.20;1.70;;;;;;;;;;5092732;28;20664;-87
2024/03/17 09:50:50;;;;;;;2.13;1.50;;;;;;;;;;5092793;28;20295;-86
2024/03/17 09:53:22;;;;;;;2.60;2.00;;;;;;;;;;5092586;28;20689;-86
2024/03/17 09:55:49;;;;;;;3.73;2.07;;;;;;;;;;5092084;28;20307;-86
2024/03/17 09:58:17;;;;;;;4.33;2.77;;;;;;;;;;5091410;28;20260;-86
2024/03/17 10:00:45;;;;;;;4.67;2.50;;;;;;;;;;5094727;28;20203;-86
2024/03/17 10:03:13;;;;;;;3.43;2.30;;;;;;;;;;5094567;28;20198;-85
2024/03/17 10:05:40;;;;;;;3.35;2.00;;;;;;;;;;5094750;28;20290;-86
2024/03/17 10:08:22;;;;;;;2.27;1.20;;;;;;;;;;5095311;28;20233;-87
2024/03/17 10:10:54;;;;;;;3.33;1.70;;;;;;;;;;5094433;28;20226;-86
2024/03/17 10:13:21;;;;;;;3.00;1.85;;;;;;;;;;5105655;28;20280;-86
2024/03/17 10:15:51;;;;;;;1.85;1.60;;;;;;;;;;5109289;28;20319;-87
2024/03/17 10:18:22;;;;;;;3.58;2.20;;;;;;;;;;5094543;28;20217;-86
2024/03/17 10:20:52;;;;;;;3.80;1.70;;;;;;;;;;5094293;28;20194;-87
2024/03/17 10:23:21;;;;;;;2.17;1.33;;;;;;;;;;5094230;28;20209;-86
2024/03/17 10:25:48;;;;;;;2.75;1.25;;;;;;;;;;5094708;28;20202;-87
2024/03/17 10:28:16;;;;;;;2.55;1.10;;;;;;;;;;5094992;28;20228;-87
2024/03/17 10:30:44;;;;;;;2.80;1.58;;;;;;;;;;5085016;28;20254;-86
2024/03/17 10:33:25;;;;;;;1.65;1.35;;;;;;;;;;5092479;28;20206;-86
2024/03/17 10:35:52;;;;;;;5.53;1.98;;;;;;;;;;5094063;28;20210;-87
2024/03/17 10:38:21;;;;;;;1.52;1.27;;;;;;;;;;5094605;28;20201;-86
2024/03/17 10:40:48;;;;;;;2.92;1.88;;;;;;;;;;5093557;28;20202;-85
2024/03/17 10:43:16;;;;;;;3.38;2.28;;;;;;;;;;5081317;28;20199;-85
2024/03/17 10:45:43;;;;;;;3.85;2.20;;;;;;;;;;5088571;28;20198;-84
2024/03/17 10:48:17;;;;;;;3.90;1.70;;;;;;;;;;5084309;28;20441;-84
2024/03/17 10:50:45;;;;;;;2.35;1.50;;;;;;;;;;5092894;28;20756;-84
2024/03/17 10:53:14;;;;;;;1.48;1.17;;;;;;;;;;5094129;28;20207;-84
2024/03/17 10:55:45;;;;;;;1.65;1.50;;;;;;;;;;5083111;28;20226;-85
2024/03/17 10:58:23;;;;;;;3.72;1.40;;;;;;;;;;5086089;28;20791;-84
2024/03/17 11:00:51;;;;;;;2.80;1.90;;;;;;;;;;5083078;28;20237;-85
2024/03/17 11:03:20;;;;;;;3.10;2.10;;;;;;;;;;5078297;28;20210;-85
2024/03/17 11:05:49;;;;;;;3.17;1.60;;;;;;;;;;5073592;28;20384;-84
2024/03/17 11:08:17;;;;;;;2.00;1.33;;;;;;;;;;5081607;28;20267;-85
2024/03/17 11:10:54;;;;;;;2.53;1.63;;;;;;;;;;5093945;28;20280;-85
2024/03/17 11:13:25;;;;;;;2.78;1.80;;;;;;;;;;5095400;28;20236;-84
2024/03/17 11:15:55;;;;;;;3.45;1.90;;;;;;;;;;5114086;28;20202;-88
2024/03/17 11:18:39;;;;;;;4.57;2.25;;;;;;;;;;5084341;28;20284;-84
2024/03/17 11:21:15;;;;;;;6.35;2.53;;;;;;;;;;5081291;28;20282;-86
2024/03/17 11:23:42;;;;;;;9.45;3.00;;;;;;;;;;4732143;28;9999944;-84
2024/03/17 11:26:11;;;;;;;3.17;2.05;;;;;;;;;;5084915;28;20201;-84
2024/03/17 11:29:06;;;;;;;2.47;2.13;;;;;;;;;;5084932;28;20657;-85
2024/03/17 11:31:33;;;;;;;3.75;1.83;;;;;;;;;;5083588;28;20222;-87
2024/03/17 11:34:03;;;;;;;2.47;1.73;;;;;;;;;;5077359;28;20206;-84
2024/03/17 11:36:38;;;;;;;2.45;1.20;;;;;;;;;;5085622;28;20743;-86
2024/03/17 11:39:06;;;;;;;3.70;1.50;;;;;;;;;;5088767;28;20217;-86
2024/03/17 11:41:41;;;;;;;2.95;1.65;;;;;;;;;;5088886;28;20201;-84
2024/03/17 11:44:14;;;;;;;2.30;1.73;;;;;;;;;;5102248;28;20205;-84
2024/03/17 11:46:42;;;;;;;3.35;2.05;;;;;;;;;;5089465;28;20214;-88
2024/03/17 11:49:17;;;;;;;3.15;2.08;;;;;;;;;;5100832;28;20202;-86
2024/03/17 11:51:49;;;;;;;3.05;1.60;;;;;;;;;;5089778;28;20239;-90
2024/03/17 11:54:18;;;;;;;2.67;1.90;;;;;;;;;;5103829;28;20205;-87
2024/03/17 11:56:47;;;;;;;3.00;1.92;;;;;;;;;;5076225;28;20213;-86
2024/03/17 11:59:14;;;;;;;1.88;1.40;;;;;;;;;;5085574;28;20198;-87
2024/03/17 12:01:41;;;;;;;3.58;1.20;;;;;;;;;;5090869;28;20214;-87
2024/03/17 12:04:08;;;;;;;2.55;1.48;;;;;;;;;;5085669;28;20202;-88
2024/03/17 12:06:42;;;;;;;2.78;1.17;;;;;;;;;;5091015;28;20206;-88
2024/03/17 12:09:10;;;;;;;4.15;1.60;;;;;;;;;;5081739;28;20711;-87
2024/03/17 12:11:38;;;;;;;2.30;1.40;;;;;;;;;;5093898;28;20230;-86
2024/03/17 12:14:16;;;;;;;2.65;1.55;;;;;;;;;;5088273;28;20251;-86
2024/03/17 12:17:04;;;;;;;2.65;1.27;;;;;;;;;;5083258;28;20203;-84
2024/03/17 12:19:32;;;;;;;3.75;1.40;;;;;;;;;;5078614;28;20556;-90
2024/03/17 12:21:59;;;;;;;3.50;1.50;;;;;;;;;;5078839;28;20207;-86
2024/03/17 12:24:27;;;;;;;2.58;1.25;;;;;;;;;;5084318;28;20645;-86
2024/03/17 12:27:03;;;;;;;4.55;2.05;;;;;;;;;;5089471;28;20232;-85
2024/03/17 12:29:44;;;;;;;2.80;1.50;;;;;;;;;;5097643;28;20202;-87
2024/03/17 12:32:13;;;;;;;3.60;1.73;;;;;;;;;;5078569;28;20222;-88
2024/03/17 12:34:44;;;;;;;3.08;1.83;;;;;;;;;;5087611;28;20637;-88
2024/03/17 12:37:25;;;;;;;2.47;1.20;;;;;;;;;;5086996;28;20198;-86
2024/03/17 12:39:51;;;;;;;3.38;1.83;;;;;;;;;;5080335;28;20207;-85
2024/03/17 12:42:24;;;;;;;3.72;1.70;;;;;;;;;;5083650;28;20313;-86
2024/03/17 12:44:56;;;;;;;3.10;1.60;;;;;;;;;;5091458;28;20645;-88
2024/03/17 12:47:34;;;;;;;2.92;1.70;;;;;;;;;;5092839;28;20210;-87
2024/03/17 12:50:01;;;;;;;1.75;1.40;;;;;;;;;;5091938;28;20198;-89
2024/03/17 12:52:29;;;;;;;3.08;1.67;;;;;;;;;;5091847;28;20612;-85
2024/03/17 13:00:33;;;;;;;4.78;1.98;;;;;;;;;;5091688;28;20632;-87
2024/03/17 13:03:01;;;;;;;5.25;1.70;;;;;;;;;;5088207;28;20282;-86
2024/03/17 13:05:28;;;;;;;4.63;1.70;;;;;;;;;;5095248;28;20252;-86
2024/03/17 13:07:56;;;;;;;4.10;1.98;;;;;;;;;;5091221;28;20198;-87
2024/03/17 13:10:24;;;;;;;1.85;1.42;;;;;;;;;;5096349;28;20252;-87
2024/03/17 13:13:00;;;;;;;4.72;1.17;;;;;;;;;;5095773;28;20229;-86
2024/03/17 13:15:30;;;;;;;3.30;2.13;;;;;;;;;;5085573;28;20570;-87
2024/03/17 13:17:58;;;;;;;5.53;1.90;;;;;;;;;;5096329;28;20285;-87
2024/03/17 13:20:26;;;;;;;3.15;1.50;;;;;;;;;;5096123;28;20668;-86
2024/03/17 13:22:53;;;;;;;3.00;1.80;;;;;;;;;;5084986;28;20277;-87
2024/03/17 13:25:23;;;;;;;2.15;1.60;;;;;;;;;;5089463;28;20625;-87
2024/03/17 13:27:50;;;;;;;3.67;1.63;;;;;;;;;;5095007;28;20233;-87
2024/03/17 13:30:18;;;;;;;4.45;2.10;;;;;;;;;;5095480;28;20248;-88
2024/03/17 13:32:47;;;;;;;2.30;2.00;;;;;;;;;;5087461;28;20227;-87
2024/03/17 13:35:19;;;;;;;3.00;1.67;;;;;;;;;;5089435;28;20210;-87
2024/03/17 13:37:46;;;;;;;2.45;1.58;;;;;;;;;;5091674;28;20649;-87
2024/03/17 13:40:16;;;;;;;2.75;1.60;;;;;;;;;;5095660;28;20205;-87
2024/03/17 13:42:44;;;;;;;2.58;1.60;;;;;;;;;;5086935;28;20195;-87
2024/03/17 13:45:12;;;;;;;2.67;1.40;;;;;;;;;;5088682;28;20207;-87
2024/03/17 13:47:40;;;;;;;3.42;1.50;;;;;;;;;;5091057;28;20191;-87
2024/03/17 13:50:12;;;;;;;1.95;1.10;;;;;;;;;;5075149;28;20252;-85
2024/03/17 13:52:40;;;;;;;3.10;1.30;;;;;;;;;;5090680;28;20222;-88
2024/03/17 13:55:08;;;;;;;4.60;1.48;;;;;;;;;;5093344;28;20279;-87
2024/03/17 13:57:35;;;;;;;3.38;1.60;;;;;;;;;;5090485;28;20203;-87
2024/03/17 14:00:03;;;;;;;3.20;1.25;;;;;;;;;;5086581;28;20289;-88
2024/03/17 14:02:31;;;;;;;1.90;1.02;;;;;;;;;;5086988;28;20194;-88
2024/03/17 14:04:58;;;;;;;2.50;1.30;;;;;;;;;;5095498;28;20198;-88
2024/03/17 14:07:27;;;;;;;2.75;1.23;;;;;;;;;;5095366;28;20214;-87
2024/03/17 14:09:54;;;;;;;2.22;1.67;;;;;;;;;;5095616;28;20195;-88
2024/03/17 14:12:22;;;;;;;3.40;1.83;;;;;;;;;;5095227;28;20230;-89
2024/03/17 14:14:49;;;;;;;1.90;1.27;;;;;;;;;;5094675;28;20222;-88
2024/03/17 14:17:16;;;;;;;2.78;1.80;;;;;;;;;;5095390;28;20630;-88
2024/03/17 14:19:43;;;;;;;2.17;1.33;;;;;;;;;;5095329;28;20202;-86
2024/03/17 14:22:11;;;;;;;2.45;1.70;;;;;;;;;;5095355;28;20202;-88
2024/03/17 14:24:40;;;;;;;4.60;1.40;;;;;;;;;;5095592;28;20664;-87
2024/03/17 14:27:13;;;;;;;2.38;1.55;;;;;;;;;;5095195;28;20228;-88
2024/03/17 14:29:40;;;;;;;3.15;1.50;;;;;;;;;;5089303;28;20198;-88
2024/03/17 14:32:08;;;;;;;2.17;1.02;;;;;;;;;;5079671;28;20803;-87
2024/03/17 14:34:37;;;;;;;4.40;1.75;;;;;;;;;;5088993;28;20202;-87
2024/03/17 14:37:04;;;;;;;3.85;1.98;;;;;;;;;;5091145;28;20244;-88
2024/03/17 14:39:32;;;;;;;2.17;1.50;;;;;;;;;;5085510;28;20251;-88
2024/03/17 14:42:00;;;;;;;3.25;1.50;;;;;;;;;;5077765;28;20198;-87
2024/03/17 14:44:28;;;;;;;3.47;1.80;;;;;;;;;;5076342;28;20199;-87
2024/03/17 14:46:55;;;;;;;4.15;2.15;;;;;;;;;;5074051;28;20654;-87
2024/03/17 14:49:23;;;;;;;3.95;1.90;;;;;;;;;;5079476;28;20242;-86
2024/03/17 14:51:50;;;;;;;3.70;1.33;;;;;;;;;;5084492;28;20214;-86